Time;durP1;ratioP1;P1;durP2;ratioP2;P2;SDS_P1;SDS_P2;PMS_P1;PMS_P2;Temp;Humidity;BMP_temperature;BMP_pressure;BME280_temperature;BME280_humidity;BME280_pressure;Samples;Min_cycle;Max_cycle;Signal;HPM_P1;HPM_P2
2021/12/27 15:07:23;;;;;;;51.15;29.98;;;26.50;2201.60;;;;;;5063425;28;20875;-76
2021/12/27 15:09:48;;;;;;;55.08;33.20;;;51.20;2227.20;;;;;;5039971;28;20041;-77
2021/12/27 15:12:14;;;;;;;58.33;32.65;;;51.20;2227.20;;;;;;5056920;28;20025;-77
2021/12/27 15:14:40;;;;;;;66.18;36.83;;;51.30;2227.20;;;;;;5054772;28;20026;-77
2021/12/27 15:17:06;;;;;;;59.88;32.50;;;51.30;2227.20;;;;;;5049672;28;20558;-77
2021/12/27 15:19:31;;;;;;;59.65;35.72;;;51.40;2227.20;;;;;;5053389;28;20043;-77
2021/12/27 15:21:57;;;;;;;64.93;37.05;;;51.40;2227.20;;;;;;5057552;28;20082;-77
2021/12/27 15:24:23;;;;;;;62.35;33.63;;;51.40;2227.20;;;;;;5063579;28;20406;-77
2021/12/27 15:26:49;;;;;;;66.15;36.25;;;51.40;2227.20;;;;;;5065395;28;20025;-77
2021/12/27 15:29:15;;;;;;;63.03;37.65;;;51.40;2227.20;;;;;;5059780;28;20491;-77
2021/12/27 15:31:41;;;;;;;71.82;38.47;;;51.40;2227.20;;;;;;5067013;28;20417;-77
2021/12/27 15:34:07;;;;;;;72.15;38.45;;;51.40;2227.20;;;;;;5063766;28;20159;-77
2021/12/27 15:36:33;;;;;;;70.35;38.85;;;51.40;2227.20;;;;;;5054062;28;20029;-77
2021/12/27 15:38:59;;;;;;;65.05;38.97;;;51.40;2227.20;;;;;;5060471;28;20070;-78
2021/12/27 15:41:28;;;;;;;78.40;42.72;;;51.40;2227.20;;;;;;5057836;28;20024;-77
2021/12/27 15:43:54;;;;;;;75.00;40.25;;;51.40;2227.20;;;;;;5058439;28;20036;-77
2021/12/27 15:46:22;;;;;;;75.07;40.38;;;51.30;2227.20;;;;;;5056567;28;20438;-77
2021/12/27 15:48:47;;;;;;;75.63;40.67;;;51.40;2227.20;;;;;;5056242;28;20048;-76
2021/12/27 15:51:13;;;;;;;121.32;62.38;;;51.40;2227.20;;;;;;5057243;28;20556;-77
2021/12/27 15:53:41;;;;;;;83.60;41.13;;;51.40;2227.20;;;;;;5057814;28;20484;-76
2021/12/27 15:56:08;;;;;;;132.75;66.93;;;51.30;2227.20;;;;;;5054506;28;20120;-77
2021/12/27 15:58:41;;;;;;;126.88;61.25;;;51.40;2227.20;;;;;;5071027;28;20006;-76
2021/12/27 16:01:09;;;;;;;176.20;87.50;;;51.40;2227.20;;;;;;5068472;28;20027;-77
2021/12/27 16:03:35;;;;;;;74.82;40.38;;;51.40;2227.20;;;;;;5053431;28;20087;-77
2021/12/27 16:06:06;;;;;;;151.00;74.97;;;51.30;2227.20;;;;;;5052913;28;20048;-77
2021/12/27 16:08:31;;;;;;;121.07;59.97;;;52.00;2227.20;;;;;;5056219;28;20044;-76
2021/12/27 16:11:01;;;;;;;63.78;33.47;;;51.40;2227.20;;;;;;5055165;28;20060;-76
2021/12/27 16:13:29;;;;;;;111.13;59.90;;;51.30;2227.20;;;;;;5053695;28;20021;-77
2021/12/27 16:15:54;;;;;;;89.28;50.30;;;51.30;2227.20;;;;;;5063573;28;20109;-77
2021/12/27 16:18:20;;;;;;;67.75;38.63;;;51.30;2227.20;;;;;;5044854;28;20476;-77
2021/12/27 16:20:46;;;;;;;65.95;38.92;;;51.40;2227.20;;;;;;5046052;28;20037;-76
2021/12/27 16:23:11;;;;;;;59.88;33.97;;;51.40;2227.20;;;;;;5046021;28;20029;-77
2021/12/27 16:25:37;;;;;;;61.72;37.85;;;51.30;2227.20;;;;;;5041782;28;20033;-77
2021/12/27 16:28:03;;;;;;;62.42;34.38;;;51.40;2227.20;;;;;;5045116;28;20475;-77
2021/12/27 16:30:29;;;;;;;56.35;33.53;;;51.30;2227.20;;;;;;5041236;28;20036;-77
2021/12/27 16:32:58;;;;;;;58.30;34.80;;;51.30;2227.20;;;;;;5039234;28;20037;-77
2021/12/27 16:35:24;;;;;;;58.03;34.50;;;51.40;2227.20;;;;;;5037595;28;20038;-77
2021/12/27 16:37:50;;;;;;;56.70;33.60;;;51.30;2227.20;;;;;;5032678;28;20036;-77
2021/12/27 16:40:16;;;;;;;58.33;36.72;;;51.30;2227.20;;;;;;5037950;28;20385;-77
2021/12/27 16:42:44;;;;;;;50.85;33.78;;;51.40;2227.20;;;;;;5042860;28;20033;-77
2021/12/27 16:45:11;;;;;;;52.28;29.08;;;51.30;2227.20;;;;;;5039197;28;20033;-77
2021/12/27 16:47:39;;;;;;;52.92;31.73;;;51.30;2227.20;;;;;;5029309;28;20377;-77
2021/12/27 16:50:07;;;;;;;57.08;33.53;;;51.40;2227.20;;;;;;5021870;28;20448;-76
2021/12/27 16:52:34;;;;;;;56.78;31.83;;;51.40;2227.20;;;;;;5043703;28;20030;-77
2021/12/27 16:54:59;;;;;;;57.75;31.50;;;51.40;2227.20;;;;;;5043342;28;20104;-77
2021/12/27 16:57:25;;;;;;;61.85;34.85;;;51.50;2227.20;;;;;;5040706;28;20125;-77
2021/12/27 16:59:51;;;;;;;62.00;35.65;;;51.40;2227.20;;;;;;5033099;28;20472;-77
2021/12/27 17:02:17;;;;;;;57.80;35.92;;;51.50;2227.20;;;;;;5033945;28;20413;-77
2021/12/27 17:04:43;;;;;;;69.10;37.28;;;51.50;2227.20;;;;;;5035048;28;20036;-77
2021/12/27 17:07:09;;;;;;;65.57;36.83;;;51.50;2227.20;;;;;;5037607;28;20045;-77
2021/12/27 17:09:35;;;;;;;62.22;33.75;;;51.30;2227.20;;;;;;5037885;28;20502;-78
2021/12/27 17:12:01;;;;;;;57.17;33.38;;;51.30;2227.20;;;;;;5050325;28;20021;-77
2021/12/27 17:14:26;;;;;;;53.38;30.35;;;51.40;2227.20;;;;;;5046244;28;20060;-78
2021/12/27 17:16:52;;;;;;;55.97;29.10;;;51.30;2227.20;;;;;;5032258;28;20558;-77
2021/12/27 17:19:18;;;;;;;53.30;29.20;;;51.30;2227.20;;;;;;5034817;28;20075;-77
2021/12/27 17:21:44;;;;;;;53.03;31.83;;;51.30;2227.20;;;;;;5041767;28;20037;-76
2021/12/27 17:24:11;;;;;;;50.53;30.23;;;51.30;2227.20;;;;;;5037312;28;20082;-77
2021/12/27 17:26:37;;;;;;;54.20;32.33;;;51.20;2227.20;;;;;;5044188;28;20028;-77
2021/12/27 17:29:05;;;;;;;51.53;29.58;;;51.20;2227.20;;;;;;5040911;28;20040;-76
2021/12/27 17:31:32;;;;;;;62.83;33.35;;;51.30;2227.20;;;;;;5043744;28;20052;-76
2021/12/27 17:33:58;;;;;;;50.47;30.40;;;51.20;2227.20;;;;;;5041101;28;20074;-76
2021/12/27 17:36:24;;;;;;;58.80;33.72;;;51.20;2227.20;;;;;;5042951;28;20495;-76
2021/12/27 17:38:50;;;;;;;60.60;35.72;;;51.20;2227.20;;;;;;5042421;28;20040;-76
2021/12/27 17:41:18;;;;;;;73.65;41.40;;;51.20;2227.20;;;;;;5045861;28;20545;-76
2021/12/27 17:43:44;;;;;;;63.05;37.83;;;51.20;2227.20;;;;;;5044694;28;20021;-76
2021/12/27 17:46:10;;;;;;;73.35;39.97;;;51.20;2227.20;;;;;;5028708;28;20029;-77
2021/12/27 17:48:36;;;;;;;51.78;30.67;;;51.30;2227.20;;;;;;5039661;28;20032;-76
2021/12/27 17:51:03;;;;;;;64.13;35.40;;;51.30;2227.20;;;;;;5029413;28;20044;-76
2021/12/27 17:53:29;;;;;;;54.47;32.63;;;51.30;2227.20;;;;;;5033751;28;20028;-76
2021/12/27 17:55:55;;;;;;;60.28;34.28;;;51.20;2227.20;;;;;;5040158;28;20029;-76
2021/12/27 17:58:24;;;;;;;65.50;35.90;;;51.30;2227.20;;;;;;5037137;28;20029;-76
2021/12/27 18:00:51;;;;;;;61.85;35.92;;;51.40;2227.20;;;;;;5033365;28;20037;-76
2021/12/27 18:03:16;;;;;;;65.93;35.53;;;51.40;2227.20;;;;;;5028968;28;20068;-76
2021/12/27 18:05:42;;;;;;;61.63;36.75;;;51.50;2227.20;;;;;;5031047;28;20080;-76
2021/12/27 18:08:08;;;;;;;62.03;36.08;;;51.60;2227.20;;;;;;5029211;28;20030;-76
2021/12/27 18:10:34;;;;;;;64.13;35.72;;;51.60;2227.20;;;;;;5029467;28;20018;-76
2021/12/27 18:13:00;;;;;;;58.22;29.83;;;51.60;2227.20;;;;;;5040907;28;20021;-76
2021/12/27 18:15:26;;;;;;;60.55;35.50;;;51.40;2227.20;;;;;;5045016;28;20040;-76
2021/12/27 18:17:52;;;;;;;73.65;39.17;;;51.40;2227.20;;;;;;5042758;28;20501;-77
2021/12/27 18:20:20;;;;;;;68.30;38.47;;;51.40;2227.20;;;;;;5046038;28;20056;-77
2021/12/27 18:22:48;;;;;;;94.97;48.70;;;51.30;2227.20;;;;;;5041874;28;20052;-76
2021/12/27 18:25:15;;;;;;;105.25;57.47;;;51.40;2227.20;;;;;;5035815;28;20029;-77
2021/12/27 18:27:41;;;;;;;80.88;41.88;;;51.30;2227.20;;;;;;5034841;28;20066;-76
2021/12/27 18:30:10;;;;;;;75.20;39.55;;;51.40;2227.20;;;;;;5031000;28;20025;-76
2021/12/27 18:32:36;;;;;;;79.35;44.00;;;51.40;2227.20;;;;;;5033638;28;20502;-76
2021/12/27 18:35:04;;;;;;;76.13;41.53;;;51.40;2227.20;;;;;;5031856;28;20455;-76
2021/12/27 18:37:30;;;;;;;81.50;42.10;;;51.40;2227.20;;;;;;5043739;28;20060;-76
2021/12/27 18:39:56;;;;;;;81.00;42.13;;;51.40;2227.20;;;;;;5038919;28;20480;-76
2021/12/27 18:42:22;;;;;;;82.45;44.28;;;51.30;2227.20;;;;;;5040988;28;20025;-76
2021/12/27 18:44:48;;;;;;;98.25;51.53;;;51.30;2227.20;;;;;;5036075;28;20030;-76
2021/12/27 18:47:15;;;;;;;106.30;56.13;;;51.30;2227.20;;;;;;5034269;28;20044;-76
2021/12/27 18:49:43;;;;;;;100.57;50.72;;;51.40;1868.80;;;;;;5041174;28;20076;-76
2021/12/27 18:52:09;;;;;;;96.43;48.10;;;51.40;2227.20;;;;;;5041615;28;20024;-76
2021/12/27 18:54:35;;;;;;;91.53;50.53;;;51.40;2227.20;;;;;;5029131;28;20029;-76
2021/12/27 18:57:03;;;;;;;83.20;43.70;;;51.40;2227.20;;;;;;5041122;28;20757;-76
2021/12/27 18:59:29;;;;;;;99.65;53.05;;;51.40;2227.20;;;;;;5040711;28;20090;-76
2021/12/27 19:01:55;;;;;;;95.60;48.80;;;51.40;2227.20;;;;;;5039335;28;20021;-76
2021/12/27 19:04:22;;;;;;;86.78;45.20;;;51.40;2227.20;;;;;;5040992;28;20496;-76
2021/12/27 19:06:48;;;;;;;103.32;49.92;;;51.40;2227.20;;;;;;5036891;28;20180;-76
2021/12/27 19:09:14;;;;;;;97.05;50.33;;;51.40;2227.20;;;;;;5037609;28;20041;-77
2021/12/27 19:11:40;;;;;;;102.10;55.58;;;51.40;2227.20;;;;;;5043793;28;20029;-76
2021/12/27 19:14:05;;;;;;;89.72;45.28;;;51.40;2227.20;;;;;;5049776;28;20104;-76
2021/12/27 19:16:31;;;;;;;92.35;46.58;;;51.30;2227.20;;;;;;5042795;28;20045;-76
2021/12/27 19:18:57;;;;;;;90.55;43.78;;;51.40;2227.20;;;;;;5038338;28;20087;-76
2021/12/27 19:21:23;;;;;;;93.03;49.28;;;51.40;2227.20;;;;;;5041695;28;20480;-77
2021/12/27 19:23:49;;;;;;;87.05;47.97;;;51.40;2227.20;;;;;;5041480;28;20036;-76
2021/12/27 19:26:15;;;;;;;88.05;46.42;;;51.40;2227.20;;;;;;5041683;28;20036;-77
2021/12/27 19:28:40;;;;;;;85.32;46.58;;;51.50;2227.20;;;;;;5038195;28;20028;-77
2021/12/27 19:31:06;;;;;;;94.57;49.47;;;51.50;2227.20;;;;;;5037900;28;20026;-76
2021/12/27 19:33:32;;;;;;;87.82;45.80;;;51.50;2227.20;;;;;;5048012;28;20021;-76
2021/12/27 19:35:58;;;;;;;91.07;48.70;;;51.40;2227.20;;;;;;5032759;28;20045;-76
2021/12/27 19:38:24;;;;;;;81.30;45.58;;;51.50;2227.20;;;;;;5036928;28;20030;-76
2021/12/27 19:40:51;;;;;;;92.25;46.05;;;51.50;2227.20;;;;;;5036157;28;20112;-77
2021/12/27 19:43:18;;;;;;;90.38;47.65;;;51.50;2227.20;;;;;;5039804;28;20069;-78
2021/12/27 19:45:45;;;;;;;89.78;47.50;;;51.50;2227.20;;;;;;5038250;28;20029;-78
2021/12/27 19:48:11;;;;;;;111.22;56.58;;;51.50;2227.20;;;;;;5042550;28;20021;-77
2021/12/27 19:50:38;;;;;;;104.95;53.72;;;51.50;2227.20;;;;;;5035826;28;20079;-77
2021/12/27 19:53:04;;;;;;;89.00;45.15;;;51.50;2227.20;;;;;;5037176;28;20025;-78
2021/12/27 19:55:30;;;;;;;90.35;49.20;;;51.50;2227.20;;;;;;5044190;28;20029;-77
2021/12/27 19:57:56;;;;;;;91.20;49.30;;;51.50;2227.20;;;;;;5040262;28;20485;-77
2021/12/27 20:00:24;;;;;;;94.05;46.05;;;51.60;1894.40;;;;;;5041975;28;20068;-76
2021/12/27 20:02:52;;;;;;;87.07;42.40;;;51.60;2227.20;;;;;;5046732;28;20075;-75
2021/12/27 20:05:19;;;;;;;90.85;49.20;;;51.70;2227.20;;;;;;5044416;28;20056;-76
2021/12/27 20:07:45;;;;;;;94.25;50.17;;;51.60;2227.20;;;;;;5038348;28;20561;-79
2021/12/27 20:10:13;;;;;;;91.10;47.33;;;51.60;2227.20;;;;;;5044953;28;20033;-81
2021/12/27 20:12:39;;;;;;;98.80;50.05;;;51.60;2227.20;;;;;;5060531;28;20029;-81
2021/12/27 20:15:07;;;;;;;98.15;48.05;;;51.60;2227.20;;;;;;5060463;28;20077;-81
2021/12/27 20:17:33;;;;;;;100.88;53.60;;;51.60;2227.20;;;;;;5045333;28;20076;-81
2021/12/27 20:19:59;;;;;;;106.85;55.92;;;51.60;2227.20;;;;;;5040403;28;20464;-80
2021/12/27 20:22:25;;;;;;;113.53;51.80;;;51.60;2227.20;;;;;;5037287;28;20045;-81
2021/12/27 20:24:51;;;;;;;116.38;57.65;;;51.60;2227.20;;;;;;5051000;28;20488;-81
2021/12/27 20:27:18;;;;;;;127.57;57.70;;;51.70;2227.20;;;;;;5043309;28;20033;-80
2021/12/27 20:29:44;;;;;;;98.85;53.28;;;51.70;2227.20;;;;;;5035393;28;20036;-81
2021/12/27 20:32:10;;;;;;;110.95;54.38;;;51.70;2227.20;;;;;;5048815;28;20045;-79
2021/12/27 20:34:37;;;;;;;121.13;62.38;;;51.60;2227.20;;;;;;5043230;28;20059;-80
2021/12/27 20:37:03;;;;;;;111.43;56.75;;;51.60;2227.20;;;;;;5043365;28;20037;-80
2021/12/27 20:39:30;;;;;;;119.47;59.38;;;51.60;1843.20;;;;;;5043738;28;20083;-80
2021/12/27 20:41:58;;;;;;;131.45;67.00;;;51.70;2227.20;;;;;;5045850;28;20035;-80
2021/12/27 20:44:28;;;;;;;111.05;53.67;;;51.60;2227.20;;;;;;5043039;28;20040;-80
2021/12/27 20:46:54;;;;;;;100.20;52.35;;;51.40;2227.20;;;;;;5040165;28;20038;-80
2021/12/27 20:49:21;;;;;;;99.47;55.33;;;51.60;2227.20;;;;;;5040622;28;20032;-82
2021/12/27 20:51:47;;;;;;;95.40;50.58;;;51.60;2073.60;;;;;;5036150;28;20116;-82
2021/12/27 20:54:13;;;;;;;110.45;59.35;;;51.60;2201.60;;;;;;5046349;28;20163;-81
2021/12/27 20:56:39;;;;;;;112.93;63.75;;;51.70;2227.20;;;;;;5042882;28;20079;-81
2021/12/27 20:59:05;;;;;;;85.60;45.22;;;51.70;2227.20;;;;;;5016410;28;20026;-81
2021/12/27 21:01:31;;;;;;;86.00;45.92;;;51.80;2227.20;;;;;;5021327;28;20397;-81
2021/12/27 21:03:57;;;;;;;91.32;46.28;;;51.70;2227.20;;;;;;5026637;28;20060;-80
2021/12/27 21:06:23;;;;;;;76.18;41.47;;;51.80;2227.20;;;;;;5023916;28;20053;-80
2021/12/27 21:08:51;;;;;;;83.75;43.42;;;51.80;2227.20;;;;;;5041591;28;20053;-79
2021/12/27 21:11:24;;;;;;;95.28;53.47;;;51.80;2227.20;;;;;;5042259;28;20033;-80
2021/12/27 21:13:52;;;;;;;89.20;46.83;;;51.80;2227.20;;;;;;5039861;28;20041;-80
2021/12/27 21:16:18;;;;;;;82.47;44.25;;;51.70;2227.20;;;;;;5043430;28;20484;-80
2021/12/27 21:18:43;;;;;;;142.10;66.10;;;51.80;2227.20;;;;;;5042281;28;20095;-80
2021/12/27 21:21:09;;;;;;;75.28;39.00;;;51.80;2227.20;;;;;;5043384;28;20116;-80
2021/12/27 21:23:35;;;;;;;113.85;58.28;;;51.80;2227.20;;;;;;5040333;28;20465;-80
2021/12/27 21:26:01;;;;;;;87.65;47.05;;;51.80;2227.20;;;;;;5043013;28;20029;-79
2021/12/27 21:28:28;;;;;;;76.22;43.88;;;51.80;2227.20;;;;;;5040306;28;20432;-79
2021/12/27 21:30:54;;;;;;;96.72;46.83;;;51.90;2227.20;;;;;;5038387;28;20021;-80
2021/12/27 21:33:20;;;;;;;79.88;43.88;;;51.80;2227.20;;;;;;5040543;28;20408;-80
2021/12/27 21:35:46;;;;;;;93.70;44.80;;;51.70;2227.20;;;;;;5043825;28;20041;-81
2021/12/27 21:38:12;;;;;;;74.45;37.50;;;51.70;2227.20;;;;;;5042531;28;20037;-78
2021/12/27 21:40:37;;;;;;;73.07;36.28;;;51.60;2227.20;;;;;;5039795;28;20033;-79
2021/12/27 21:43:03;;;;;;;121.35;56.90;;;51.60;1996.80;;;;;;5041430;28;20102;-81
2021/12/27 21:45:30;;;;;;;75.60;39.65;;;51.70;2073.60;;;;;;5041813;28;20483;-81
2021/12/27 21:47:57;;;;;;;85.72;43.40;;;51.70;1971.20;;;;;;5042137;28;20044;-81
2021/12/27 21:50:27;;;;;;;79.35;42.10;;;51.70;2150.40;;;;;;5042664;28;20026;-80
2021/12/27 21:52:56;;;;;;;96.43;46.65;;;51.90;2176.00;;;;;;5034526;28;20062;-80
2021/12/27 21:55:23;;;;;;;100.38;50.95;;;51.80;1945.60;;;;;;5042505;28;20021;-81
2021/12/27 21:57:50;;;;;;;75.95;37.50;;;51.80;2227.20;;;;;;5036140;28;20022;-81
2021/12/27 22:00:19;;;;;;;124.75;57.30;;;51.90;2227.20;;;;;;5039793;28;20088;-81
2021/12/27 22:02:45;;;;;;;87.97;44.88;;;51.80;2227.20;;;;;;5042409;28;20027;-81
2021/12/27 22:05:11;;;;;;;94.43;42.83;;;52.00;2227.20;;;;;;5039903;28;20120;-82
2021/12/27 22:07:37;;;;;;;92.18;46.25;;;76.80;2227.20;;;;;;5039251;28;20037;-81
2021/12/27 22:10:07;;;;;;;82.53;42.60;;;51.90;1843.20;;;;;;5040718;28;20561;-81
2021/12/27 22:12:34;;;;;;;74.47;36.00;;;52.00;2227.20;;;;;;5035908;28;20108;-81
2021/12/27 22:15:00;;;;;;;85.20;36.85;;;52.10;2227.20;;;;;;5043824;28;20097;-81
2021/12/27 22:17:25;;;;;;;88.50;40.83;;;51.90;2227.20;;;;;;5042257;28;20564;-80
2021/12/27 22:19:51;;;;;;;79.43;37.60;;;51.80;2227.20;;;;;;5038303;28;20025;-80
2021/12/27 22:22:17;;;;;;;79.28;39.67;;;51.80;2227.20;;;;;;5029320;28;20440;-80
2021/12/27 22:24:43;;;;;;;88.80;38.83;;;51.70;2227.20;;;;;;5034458;28;20117;-80
2021/12/27 22:27:08;;;;;;;79.07;40.28;;;51.80;2150.40;;;;;;5033959;28;20014;-82
2021/12/27 22:29:34;;;;;;;79.03;38.83;;;51.80;1971.20;;;;;;5031649;28;20026;-81
2021/12/27 22:32:00;;;;;;;75.70;36.83;;;52.10;2176.00;;;;;;5034946;28;20021;-80
2021/12/27 22:34:26;;;;;;;86.55;39.47;;;52.00;2022.40;;;;;;5048705;28;20022;-80
2021/12/27 22:36:52;;;;;;;126.70;59.13;;;51.80;2227.20;;;;;;5037211;28;20488;-79
2021/12/27 22:39:18;;;;;;;78.90;37.70;;;51.90;2099.20;;;;;;5039439;28;20034;-80
2021/12/27 22:41:45;;;;;;;79.57;40.00;;;51.90;2227.20;;;;;;5040208;28;20179;-80
2021/12/27 22:44:11;;;;;;;72.28;35.88;;;51.80;2227.20;;;;;;5044298;28;20033;-80
2021/12/27 22:46:36;;;;;;;76.88;40.33;;;51.80;2227.20;;;;;;5045542;28;20044;-81
2021/12/27 22:49:02;;;;;;;78.90;40.10;;;51.80;2227.20;;;;;;5044023;28;20028;-81
2021/12/27 22:51:28;;;;;;;64.53;32.95;;;51.80;2227.20;;;;;;5045039;28;20013;-81
2021/12/27 22:53:54;;;;;;;68.82;35.83;;;51.90;1945.60;;;;;;5035188;28;20027;-82
2021/12/27 22:56:20;;;;;;;64.70;33.78;;;52.00;1894.40;;;;;;5052980;28;20394;-80
2021/12/27 22:58:46;;;;;;;69.03;34.47;;;52.00;2227.20;;;;;;5053037;28;20025;-81
2021/12/27 23:01:13;;;;;;;62.05;34.75;;;51.90;2227.20;;;;;;5049933;28;20104;-82
2021/12/27 23:03:42;;;;;;;71.07;36.92;;;51.90;2227.20;;;;;;5033336;28;20033;-80
2021/12/27 23:06:09;;;;;;;69.15;36.15;;;51.80;2227.20;;;;;;5031000;28;20489;-81
2021/12/27 23:08:35;;;;;;;65.03;35.83;;;51.70;2227.20;;;;;;5048059;28;20029;-81
2021/12/27 23:11:01;;;;;;;66.85;32.95;;;51.70;2227.20;;;;;;5040285;28;20033;-82
2021/12/27 23:13:27;;;;;;;62.08;34.30;;;51.70;2150.40;;;;;;5041716;28;20036;-81
2021/12/27 23:15:53;;;;;;;68.20;32.00;;;51.80;2227.20;;;;;;5039577;28;20025;-80
2021/12/27 23:18:19;;;;;;;62.08;30.58;;;51.90;2227.20;;;;;;5041187;28;20083;-80
2021/12/27 23:20:45;;;;;;;57.20;29.25;;;52.00;2176.00;;;;;;5038407;28;20025;-81
2021/12/27 23:23:11;;;;;;;59.13;28.52;;;52.10;1920.00;;;;;;5034491;28;20033;-81
2021/12/27 23:25:37;;;;;;;61.20;29.38;;;52.10;2227.20;;;;;;5040563;28;20026;-80
2021/12/27 23:28:05;;;;;;;56.42;29.50;;;52.10;2227.20;;;;;;5043416;28;20395;-81
2021/12/27 23:30:37;;;;;;;52.63;27.38;;;76.80;2227.20;;;;;;5044494;28;20022;-79
2021/12/27 23:33:16;;;;;;;54.95;28.38;;;76.80;2227.20;;;;;;5049767;28;20033;-80
2021/12/27 23:35:46;;;;;;;55.35;29.65;;;76.90;2227.20;;;;;;5044002;28;20037;-80
2021/12/27 23:38:14;;;;;;;61.05;32.05;;;76.90;2227.20;;;;;;5045203;28;20105;-80
2021/12/27 23:40:40;;;;;;;50.05;28.40;;;76.90;2227.20;;;;;;5043455;28;20477;-79
2021/12/27 23:43:07;;;;;;;52.67;28.52;;;76.80;2227.20;;;;;;5043052;28;20451;-79
2021/12/27 23:45:35;;;;;;;53.20;27.52;;;76.80;2227.20;;;;;;5038602;28;20029;-80
2021/12/27 23:48:01;;;;;;;50.72;29.17;;;76.90;2227.20;;;;;;5049664;28;20131;-81
2021/12/27 23:50:27;;;;;;;62.30;34.70;;;76.90;2227.20;;;;;;5042754;28;20484;-81
2021/12/27 23:52:55;;;;;;;75.93;36.33;;;76.90;2227.20;;;;;;5045998;28;20464;-82
2021/12/27 23:55:21;;;;;;;73.25;38.83;;;76.90;2227.20;;;;;;5040800;28;20036;-81
2021/12/27 23:57:48;;;;;;;88.00;41.85;;;76.90;2227.20;;;;;;5040624;28;20021;-80
